sensor_id;sensor_type;location;lat;lon;timestamp;P1;durP1;ratioP1;P2;durP2;ratioP2
75916;SDS011;64595;50.148;14.334;2023-04-08T00:00:17;34.40;;;18.88;;
75916;SDS011;64595;50.148;14.334;2023-04-08T00:02:42;35.20;;;19.67;;
75916;SDS011;64595;50.148;14.334;2023-04-08T00:05:09;33.38;;;19.55;;
75916;SDS011;64595;50.148;14.334;2023-04-08T00:07:35;33.75;;;18.38;;
75916;SDS011;64595;50.148;14.334;2023-04-08T00:10:00;28.60;;;16.48;;
75916;SDS011;64595;50.148;14.334;2023-04-08T00:12:25;33.25;;;18.55;;
75916;SDS011;64595;50.148;14.334;2023-04-08T00:14:51;35.28;;;19.70;;
75916;SDS011;64595;50.148;14.334;2023-04-08T00:17:17;36.47;;;20.40;;
75916;SDS011;64595;50.148;14.334;2023-04-08T00:19:42;32.80;;;19.48;;
75916;SDS011;64595;50.148;14.334;2023-04-08T00:22:09;28.98;;;17.63;;
75916;SDS011;64595;50.148;14.334;2023-04-08T00:24:34;32.22;;;16.67;;
75916;SDS011;64595;50.148;14.334;2023-04-08T00:27:00;29.92;;;18.70;;
75916;SDS011;64595;50.148;14.334;2023-04-08T00:29:25;35.30;;;20.23;;
75916;SDS011;64595;50.148;14.334;2023-04-08T00:31:51;34.28;;;20.02;;
75916;SDS011;64595;50.148;14.334;2023-04-08T00:34:16;34.08;;;17.40;;
75916;SDS011;64595;50.148;14.334;2023-04-08T00:36:42;37.13;;;20.10;;
75916;SDS011;64595;50.148;14.334;2023-04-08T00:39:09;32.30;;;18.17;;
75916;SDS011;64595;50.148;14.334;2023-04-08T00:41:34;33.00;;;18.60;;
75916;SDS011;64595;50.148;14.334;2023-04-08T00:44:00;28.35;;;16.23;;
75916;SDS011;64595;50.148;14.334;2023-04-08T00:46:25;29.50;;;15.45;;
75916;SDS011;64595;50.148;14.334;2023-04-08T00:48:51;26.05;;;14.35;;
75916;SDS011;64595;50.148;14.334;2023-04-08T00:51:16;26.23;;;14.32;;
75916;SDS011;64595;50.148;14.334;2023-04-08T00:53:42;23.90;;;14.98;;
75916;SDS011;64595;50.148;14.334;2023-04-08T00:56:09;20.02;;;12.45;;
75916;SDS011;64595;50.148;14.334;2023-04-08T00:58:34;20.02;;;12.38;;
75916;SDS011;64595;50.148;14.334;2023-04-08T01:01:02;19.02;;;12.32;;
75916;SDS011;64595;50.148;14.334;2023-04-08T01:03:38;19.92;;;12.55;;
75916;SDS011;64595;50.148;14.334;2023-04-08T01:06:09;21.83;;;13.35;;
75916;SDS011;64595;50.148;14.334;2023-04-08T01:08:38;28.25;;;14.25;;
75916;SDS011;64595;50.148;14.334;2023-04-08T01:11:05;21.08;;;12.63;;
75916;SDS011;64595;50.148;14.334;2023-04-08T01:13:36;23.58;;;14.40;;
75916;SDS011;64595;50.148;14.334;2023-04-08T01:16:04;28.98;;;15.23;;
75916;SDS011;64595;50.148;14.334;2023-04-08T01:18:30;27.25;;;15.82;;
75916;SDS011;64595;50.148;14.334;2023-04-08T01:20:58;29.02;;;16.45;;
75916;SDS011;64595;50.148;14.334;2023-04-08T01:23:28;29.73;;;15.13;;
75916;SDS011;64595;50.148;14.334;2023-04-08T01:25:56;34.63;;;17.38;;
75916;SDS011;64595;50.148;14.334;2023-04-08T01:28:23;33.40;;;17.33;;
75916;SDS011;64595;50.148;14.334;2023-04-08T01:30:49;31.80;;;16.75;;
75916;SDS011;64595;50.148;14.334;2023-04-08T01:33:15;30.27;;;17.25;;
75916;SDS011;64595;50.148;14.334;2023-04-08T01:35:41;33.97;;;17.35;;
75916;SDS011;64595;50.148;14.334;2023-04-08T01:38:07;31.63;;;16.95;;
75916;SDS011;64595;50.148;14.334;2023-04-08T01:40:34;33.10;;;17.30;;
75916;SDS011;64595;50.148;14.334;2023-04-08T01:43:01;32.85;;;17.80;;
75916;SDS011;64595;50.148;14.334;2023-04-08T01:45:27;36.42;;;18.98;;
75916;SDS011;64595;50.148;14.334;2023-04-08T01:47:53;37.22;;;20.27;;
75916;SDS011;64595;50.148;14.334;2023-04-08T01:50:27;39.70;;;20.90;;
75916;SDS011;64595;50.148;14.334;2023-04-08T01:52:52;34.80;;;18.50;;
75916;SDS011;64595;50.148;14.334;2023-04-08T01:55:19;37.30;;;18.92;;
75916;SDS011;64595;50.148;14.334;2023-04-08T01:57:47;34.97;;;18.77;;
75916;SDS011;64595;50.148;14.334;2023-04-08T02:00:16;36.72;;;18.58;;
75916;SDS011;64595;50.148;14.334;2023-04-08T02:02:43;30.27;;;16.98;;
75916;SDS011;64595;50.148;14.334;2023-04-08T02:05:10;30.25;;;18.08;;
75916;SDS011;64595;50.148;14.334;2023-04-08T02:07:35;30.45;;;18.02;;
75916;SDS011;64595;50.148;14.334;2023-04-08T02:10:01;33.35;;;18.50;;
75916;SDS011;64595;50.148;14.334;2023-04-08T02:12:26;26.98;;;17.33;;
75916;SDS011;64595;50.148;14.334;2023-04-08T02:14:52;30.02;;;16.20;;
75916;SDS011;64595;50.148;14.334;2023-04-08T02:17:20;27.80;;;15.23;;
75916;SDS011;64595;50.148;14.334;2023-04-08T02:19:51;27.75;;;15.80;;
75916;SDS011;64595;50.148;14.334;2023-04-08T02:22:22;24.67;;;14.15;;
75916;SDS011;64595;50.148;14.334;2023-04-08T02:24:50;25.83;;;13.98;;
75916;SDS011;64595;50.148;14.334;2023-04-08T02:27:16;34.45;;;18.80;;
75916;SDS011;64595;50.148;14.334;2023-04-08T02:29:42;37.58;;;19.00;;
75916;SDS011;64595;50.148;14.334;2023-04-08T02:32:09;31.08;;;15.75;;
75916;SDS011;64595;50.148;14.334;2023-04-08T02:34:37;33.90;;;18.77;;
75916;SDS011;64595;50.148;14.334;2023-04-08T02:37:03;37.67;;;22.13;;
75916;SDS011;64595;50.148;14.334;2023-04-08T02:39:31;25.38;;;16.35;;
75916;SDS011;64595;50.148;14.334;2023-04-08T02:41:57;44.80;;;27.02;;
75916;SDS011;64595;50.148;14.334;2023-04-08T02:44:22;23.95;;;14.75;;
75916;SDS011;64595;50.148;14.334;2023-04-08T02:46:48;23.25;;;13.77;;
75916;SDS011;64595;50.148;14.334;2023-04-08T02:49:13;21.48;;;13.40;;
75916;SDS011;64595;50.148;14.334;2023-04-08T02:51:40;24.42;;;14.70;;
75916;SDS011;64595;50.148;14.334;2023-04-08T02:54:06;26.50;;;16.27;;
75916;SDS011;64595;50.148;14.334;2023-04-08T02:56:31;25.05;;;14.18;;
75916;SDS011;64595;50.148;14.334;2023-04-08T02:58:57;22.10;;;13.73;;
75916;SDS011;64595;50.148;14.334;2023-04-08T03:01:22;22.42;;;13.50;;
75916;SDS011;64595;50.148;14.334;2023-04-08T03:03:48;24.65;;;12.80;;
75916;SDS011;64595;50.148;14.334;2023-04-08T03:06:14;20.13;;;11.90;;
75916;SDS011;64595;50.148;14.334;2023-04-08T03:08:40;22.80;;;13.82;;
75916;SDS011;64595;50.148;14.334;2023-04-08T03:11:06;16.60;;;11.18;;
75916;SDS011;64595;50.148;14.334;2023-04-08T03:13:32;20.17;;;12.13;;
75916;SDS011;64595;50.148;14.334;2023-04-08T03:15:57;20.58;;;12.73;;
75916;SDS011;64595;50.148;14.334;2023-04-08T03:18:23;18.63;;;11.70;;
75916;SDS011;64595;50.148;14.334;2023-04-08T03:20:48;17.80;;;11.25;;
75916;SDS011;64595;50.148;14.334;2023-04-08T03:23:14;21.45;;;11.45;;
75916;SDS011;64595;50.148;14.334;2023-04-08T03:25:40;18.58;;;12.43;;
75916;SDS011;64595;50.148;14.334;2023-04-08T03:28:06;18.98;;;10.90;;
75916;SDS011;64595;50.148;14.334;2023-04-08T03:30:31;17.73;;;10.77;;
75916;SDS011;64595;50.148;14.334;2023-04-08T03:32:57;21.40;;;12.57;;
75916;SDS011;64595;50.148;14.334;2023-04-08T03:35:22;21.98;;;14.10;;
75916;SDS011;64595;50.148;14.334;2023-04-08T03:37:48;22.08;;;12.40;;
75916;SDS011;64595;50.148;14.334;2023-04-08T03:40:14;19.73;;;11.50;;
75916;SDS011;64595;50.148;14.334;2023-04-08T03:42:40;20.02;;;11.35;;
75916;SDS011;64595;50.148;14.334;2023-04-08T03:45:06;18.63;;;12.07;;
75916;SDS011;64595;50.148;14.334;2023-04-08T03:47:32;27.20;;;14.25;;
75916;SDS011;64595;50.148;14.334;2023-04-08T03:49:58;23.75;;;14.95;;
75916;SDS011;64595;50.148;14.334;2023-04-08T03:52:23;26.85;;;13.30;;
75916;SDS011;64595;50.148;14.334;2023-04-08T03:54:49;18.13;;;11.15;;
75916;SDS011;64595;50.148;14.334;2023-04-08T03:57:15;17.45;;;10.73;;
75916;SDS011;64595;50.148;14.334;2023-04-08T03:59:41;30.55;;;14.05;;
75916;SDS011;64595;50.148;14.334;2023-04-08T04:02:07;37.67;;;18.40;;
75916;SDS011;64595;50.148;14.334;2023-04-08T04:04:32;64.10;;;26.98;;
75916;SDS011;64595;50.148;14.334;2023-04-08T04:06:58;15.02;;;9.20;;
75916;SDS011;64595;50.148;14.334;2023-04-08T04:09:23;46.65;;;21.75;;
75916;SDS011;64595;50.148;14.334;2023-04-08T04:11:49;38.95;;;20.00;;
75916;SDS011;64595;50.148;14.334;2023-04-08T04:14:14;14.88;;;8.38;;
75916;SDS011;64595;50.148;14.334;2023-04-08T04:16:41;20.58;;;10.95;;
75916;SDS011;64595;50.148;14.334;2023-04-08T04:19:07;34.13;;;17.13;;
75916;SDS011;64595;50.148;14.334;2023-04-08T04:21:34;71.60;;;35.10;;
75916;SDS011;64595;50.148;14.334;2023-04-08T04:24:00;47.45;;;22.92;;
75916;SDS011;64595;50.148;14.334;2023-04-08T04:26:25;25.25;;;12.20;;
75916;SDS011;64595;50.148;14.334;2023-04-08T04:28:51;25.85;;;14.93;;
75916;SDS011;64595;50.148;14.334;2023-04-08T04:31:17;64.88;;;28.88;;
75916;SDS011;64595;50.148;14.334;2023-04-08T04:33:44;35.33;;;18.95;;
75916;SDS011;64595;50.148;14.334;2023-04-08T04:36:09;40.67;;;20.73;;
75916;SDS011;64595;50.148;14.334;2023-04-08T04:38:35;20.98;;;12.00;;
75916;SDS011;64595;50.148;14.334;2023-04-08T04:41:00;18.70;;;10.65;;
75916;SDS011;64595;50.148;14.334;2023-04-08T04:43:26;25.30;;;14.20;;
75916;SDS011;64595;50.148;14.334;2023-04-08T04:45:51;51.10;;;26.75;;
75916;SDS011;64595;50.148;14.334;2023-04-08T04:48:17;40.65;;;21.10;;
75916;SDS011;64595;50.148;14.334;2023-04-08T04:50:44;53.70;;;26.73;;
75916;SDS011;64595;50.148;14.334;2023-04-08T04:53:09;67.97;;;32.38;;
75916;SDS011;64595;50.148;14.334;2023-04-08T04:55:34;49.80;;;26.02;;
75916;SDS011;64595;50.148;14.334;2023-04-08T04:58:00;27.08;;;16.20;;
75916;SDS011;64595;50.148;14.334;2023-04-08T05:00:25;49.00;;;24.65;;
75916;SDS011;64595;50.148;14.334;2023-04-08T05:02:51;37.92;;;19.67;;
75916;SDS011;64595;50.148;14.334;2023-04-08T05:05:16;25.80;;;13.55;;
75916;SDS011;64595;50.148;14.334;2023-04-08T05:07:43;27.88;;;15.93;;
75916;SDS011;64595;50.148;14.334;2023-04-08T05:10:09;21.00;;;11.80;;
75916;SDS011;64595;50.148;14.334;2023-04-08T05:12:35;28.65;;;16.30;;
75916;SDS011;64595;50.148;14.334;2023-04-08T05:15:00;36.38;;;19.75;;
75916;SDS011;64595;50.148;14.334;2023-04-08T05:17:25;35.83;;;20.33;;
75916;SDS011;64595;50.148;14.334;2023-04-08T05:19:51;33.10;;;19.67;;
75916;SDS011;64595;50.148;14.334;2023-04-08T05:22:16;25.98;;;14.77;;
75916;SDS011;64595;50.148;14.334;2023-04-08T05:24:43;29.88;;;18.48;;
75916;SDS011;64595;50.148;14.334;2023-04-08T05:27:09;25.80;;;16.30;;
75916;SDS011;64595;50.148;14.334;2023-04-08T05:29:34;20.75;;;13.38;;
75916;SDS011;64595;50.148;14.334;2023-04-08T05:32:00;19.05;;;12.48;;
75916;SDS011;64595;50.148;14.334;2023-04-08T05:34:25;13.38;;;8.88;;
75916;SDS011;64595;50.148;14.334;2023-04-08T05:36:51;16.50;;;10.18;;
75916;SDS011;64595;50.148;14.334;2023-04-08T05:39:16;14.73;;;9.05;;
75916;SDS011;64595;50.148;14.334;2023-04-08T05:41:46;13.23;;;8.45;;
75916;SDS011;64595;50.148;14.334;2023-04-08T05:44:11;14.10;;;8.52;;
75916;SDS011;64595;50.148;14.334;2023-04-08T05:46:37;14.88;;;9.65;;
75916;SDS011;64595;50.148;14.334;2023-04-08T05:49:02;11.70;;;7.55;;
75916;SDS011;64595;50.148;14.334;2023-04-08T05:51:28;13.10;;;8.90;;
75916;SDS011;64595;50.148;14.334;2023-04-08T05:53:53;13.13;;;8.65;;
75916;SDS011;64595;50.148;14.334;2023-04-08T05:56:19;17.58;;;10.43;;
75916;SDS011;64595;50.148;14.334;2023-04-08T05:58:46;24.92;;;13.85;;
75916;SDS011;64595;50.148;14.334;2023-04-08T06:01:11;18.65;;;11.32;;
75916;SDS011;64595;50.148;14.334;2023-04-08T06:03:37;19.30;;;12.35;;
75916;SDS011;64595;50.148;14.334;2023-04-08T06:06:02;20.27;;;12.18;;
75916;SDS011;64595;50.148;14.334;2023-04-08T06:08:28;16.40;;;9.80;;
75916;SDS011;64595;50.148;14.334;2023-04-08T06:10:53;14.32;;;9.10;;
75916;SDS011;64595;50.148;14.334;2023-04-08T06:13:19;18.77;;;10.57;;
75916;SDS011;64595;50.148;14.334;2023-04-08T06:15:46;15.20;;;9.43;;
75916;SDS011;64595;50.148;14.334;2023-04-08T06:18:11;14.90;;;9.77;;
75916;SDS011;64595;50.148;14.334;2023-04-08T06:20:37;15.32;;;9.25;;
75916;SDS011;64595;50.148;14.334;2023-04-08T06:23:02;13.50;;;8.23;;
75916;SDS011;64595;50.148;14.334;2023-04-08T06:25:27;12.85;;;8.68;;
75916;SDS011;64595;50.148;14.334;2023-04-08T06:27:53;14.02;;;9.50;;
75916;SDS011;64595;50.148;14.334;2023-04-08T06:30:18;16.00;;;9.93;;
75916;SDS011;64595;50.148;14.334;2023-04-08T06:32:45;15.20;;;9.55;;
75916;SDS011;64595;50.148;14.334;2023-04-08T06:35:11;16.25;;;9.70;;
75916;SDS011;64595;50.148;14.334;2023-04-08T06:37:36;14.68;;;10.15;;
75916;SDS011;64595;50.148;14.334;2023-04-08T06:40:04;12.32;;;8.68;;
75916;SDS011;64595;50.148;14.334;2023-04-08T06:42:31;11.90;;;8.27;;
75916;SDS011;64595;50.148;14.334;2023-04-08T06:44:56;13.77;;;8.60;;
75916;SDS011;64595;50.148;14.334;2023-04-08T06:47:22;11.60;;;8.35;;
75916;SDS011;64595;50.148;14.334;2023-04-08T06:49:49;13.90;;;9.15;;
75916;SDS011;64595;50.148;14.334;2023-04-08T06:52:15;14.40;;;8.73;;
75916;SDS011;64595;50.148;14.334;2023-04-08T06:54:40;11.93;;;8.38;;
75916;SDS011;64595;50.148;14.334;2023-04-08T06:57:08;17.90;;;10.13;;
75916;SDS011;64595;50.148;14.334;2023-04-08T06:59:33;13.18;;;9.15;;
75916;SDS011;64595;50.148;14.334;2023-04-08T07:01:59;11.15;;;7.65;;
75916;SDS011;64595;50.148;14.334;2023-04-08T07:04:24;11.43;;;7.55;;
75916;SDS011;64595;50.148;14.334;2023-04-08T07:06:51;10.60;;;6.47;;
75916;SDS011;64595;50.148;14.334;2023-04-08T07:09:16;9.35;;;6.45;;
75916;SDS011;64595;50.148;14.334;2023-04-08T07:11:42;12.38;;;8.50;;
75916;SDS011;64595;50.148;14.334;2023-04-08T07:14:07;10.80;;;7.63;;
75916;SDS011;64595;50.148;14.334;2023-04-08T07:16:33;11.63;;;7.28;;
75916;SDS011;64595;50.148;14.334;2023-04-08T07:18:58;10.18;;;7.55;;
75916;SDS011;64595;50.148;14.334;2023-04-08T07:21:24;10.98;;;6.90;;
75916;SDS011;64595;50.148;14.334;2023-04-08T07:23:51;10.88;;;7.72;;
75916;SDS011;64595;50.148;14.334;2023-04-08T07:26:17;12.38;;;7.88;;
75916;SDS011;64595;50.148;14.334;2023-04-08T07:28:42;14.98;;;8.75;;
75916;SDS011;64595;50.148;14.334;2023-04-08T07:31:09;12.40;;;8.13;;
75916;SDS011;64595;50.148;14.334;2023-04-08T07:33:35;15.90;;;9.70;;
75916;SDS011;64595;50.148;14.334;2023-04-08T07:36:00;14.70;;;9.55;;
75916;SDS011;64595;50.148;14.334;2023-04-08T07:38:26;15.90;;;9.93;;
75916;SDS011;64595;50.148;14.334;2023-04-08T07:40:53;17.77;;;11.23;;
75916;SDS011;64595;50.148;14.334;2023-04-08T07:43:18;13.55;;;8.90;;
75916;SDS011;64595;50.148;14.334;2023-04-08T07:45:44;11.93;;;8.52;;
75916;SDS011;64595;50.148;14.334;2023-04-08T07:48:09;12.00;;;8.70;;
75916;SDS011;64595;50.148;14.334;2023-04-08T07:50:35;12.57;;;8.38;;
75916;SDS011;64595;50.148;14.334;2023-04-08T07:53:00;12.60;;;8.75;;
75916;SDS011;64595;50.148;14.334;2023-04-08T07:55:26;10.27;;;7.78;;
75916;SDS011;64595;50.148;14.334;2023-04-08T07:57:52;11.20;;;8.20;;
75916;SDS011;64595;50.148;14.334;2023-04-08T08:00:18;9.35;;;6.70;;
75916;SDS011;64595;50.148;14.334;2023-04-08T08:02:44;9.73;;;7.38;;
75916;SDS011;64595;50.148;14.334;2023-04-08T08:05:09;10.80;;;7.97;;
75916;SDS011;64595;50.148;14.334;2023-04-08T08:07:35;11.48;;;8.35;;
75916;SDS011;64595;50.148;14.334;2023-04-08T08:10:00;9.77;;;7.70;;
75916;SDS011;64595;50.148;14.334;2023-04-08T08:12:26;10.20;;;7.85;;
75916;SDS011;64595;50.148;14.334;2023-04-08T08:14:53;18.58;;;12.45;;
75916;SDS011;64595;50.148;14.334;2023-04-08T08:17:18;20.05;;;12.52;;
75916;SDS011;64595;50.148;14.334;2023-04-08T08:19:44;17.95;;;11.07;;
75916;SDS011;64595;50.148;14.334;2023-04-08T08:22:10;14.98;;;10.63;;
75916;SDS011;64595;50.148;14.334;2023-04-08T08:24:35;13.35;;;10.50;;
75916;SDS011;64595;50.148;14.334;2023-04-08T08:27:01;12.15;;;9.18;;
75916;SDS011;64595;50.148;14.334;2023-04-08T08:29:27;11.93;;;9.40;;
75916;SDS011;64595;50.148;14.334;2023-04-08T08:31:53;12.07;;;7.85;;
75916;SDS011;64595;50.148;14.334;2023-04-08T08:34:19;15.27;;;10.40;;
75916;SDS011;64595;50.148;14.334;2023-04-08T08:36:44;16.50;;;10.27;;
75916;SDS011;64595;50.148;14.334;2023-04-08T08:39:10;14.15;;;9.43;;
75916;SDS011;64595;50.148;14.334;2023-04-08T08:41:35;17.05;;;11.32;;
75916;SDS011;64595;50.148;14.334;2023-04-08T08:44:01;14.82;;;9.82;;
75916;SDS011;64595;50.148;14.334;2023-04-08T08:46:26;16.92;;;10.68;;
75916;SDS011;64595;50.148;14.334;2023-04-08T08:48:53;16.88;;;11.52;;
75916;SDS011;64595;50.148;14.334;2023-04-08T08:51:19;17.95;;;10.82;;
75916;SDS011;64595;50.148;14.334;2023-04-08T08:53:45;18.55;;;11.10;;
75916;SDS011;64595;50.148;14.334;2023-04-08T08:56:10;18.60;;;11.90;;
75916;SDS011;64595;50.148;14.334;2023-04-08T08:58:36;18.35;;;11.25;;
75916;SDS011;64595;50.148;14.334;2023-04-08T09:01:01;21.70;;;14.23;;
75916;SDS011;64595;50.148;14.334;2023-04-08T09:03:27;18.05;;;11.30;;
75916;SDS011;64595;50.148;14.334;2023-04-08T09:05:54;13.35;;;8.95;;
75916;SDS011;64595;50.148;14.334;2023-04-08T09:08:24;12.57;;;8.75;;
75916;SDS011;64595;50.148;14.334;2023-04-08T09:10:50;14.13;;;9.15;;
75916;SDS011;64595;50.148;14.334;2023-04-08T09:13:16;15.88;;;9.60;;
75916;SDS011;64595;50.148;14.334;2023-04-08T09:15:50;13.73;;;10.20;;
75916;SDS011;64595;50.148;14.334;2023-04-08T09:18:25;11.82;;;8.60;;
75916;SDS011;64595;50.148;14.334;2023-04-08T09:20:51;12.45;;;7.75;;
75916;SDS011;64595;50.148;14.334;2023-04-08T09:23:18;12.82;;;8.82;;
75916;SDS011;64595;50.148;14.334;2023-04-08T09:25:43;14.82;;;8.88;;
75916;SDS011;64595;50.148;14.334;2023-04-08T09:28:17;13.55;;;8.10;;
75916;SDS011;64595;50.148;14.334;2023-04-08T09:30:43;13.02;;;8.27;;
75916;SDS011;64595;50.148;14.334;2023-04-08T09:33:15;15.68;;;9.75;;
75916;SDS011;64595;50.148;14.334;2023-04-08T09:35:41;13.88;;;8.25;;
75916;SDS011;64595;50.148;14.334;2023-04-08T09:38:06;13.20;;;9.65;;
75916;SDS011;64595;50.148;14.334;2023-04-08T09:40:33;13.57;;;9.27;;
75916;SDS011;64595;50.148;14.334;2023-04-08T09:42:59;12.40;;;8.18;;
75916;SDS011;64595;50.148;14.334;2023-04-08T09:45:27;17.73;;;12.27;;
75916;SDS011;64595;50.148;14.334;2023-04-08T09:47:55;17.00;;;11.75;;
75916;SDS011;64595;50.148;14.334;2023-04-08T09:50:22;17.63;;;11.10;;
75916;SDS011;64595;50.148;14.334;2023-04-08T09:52:52;15.88;;;9.95;;
75916;SDS011;64595;50.148;14.334;2023-04-08T09:55:19;15.95;;;9.52;;
75916;SDS011;64595;50.148;14.334;2023-04-08T09:57:49;14.35;;;9.88;;
75916;SDS011;64595;50.148;14.334;2023-04-08T10:00:16;19.52;;;11.80;;
75916;SDS011;64595;50.148;14.334;2023-04-08T10:02:44;17.30;;;11.70;;
75916;SDS011;64595;50.148;14.334;2023-04-08T10:05:13;13.07;;;8.45;;
75916;SDS011;64595;50.148;14.334;2023-04-08T10:07:39;15.13;;;10.30;;
75916;SDS011;64595;50.148;14.334;2023-04-08T10:10:06;26.88;;;9.32;;
75916;SDS011;64595;50.148;14.334;2023-04-08T10:12:32;13.23;;;9.07;;
75916;SDS011;64595;50.148;14.334;2023-04-08T10:17:50;13.68;;;9.38;;
75916;SDS011;64595;50.148;14.334;2023-04-08T10:23:09;14.18;;;9.98;;
75916;SDS011;64595;50.148;14.334;2023-04-08T10:25:36;13.48;;;10.07;;
75916;SDS011;64595;50.148;14.334;2023-04-08T10:30:50;12.35;;;8.63;;
75916;SDS011;64595;50.148;14.334;2023-04-08T10:38:07;12.63;;;9.15;;
75916;SDS011;64595;50.148;14.334;2023-04-08T10:40:34;13.45;;;9.07;;
75916;SDS011;64595;50.148;14.334;2023-04-08T10:47:52;12.73;;;8.60;;
75916;SDS011;64595;50.148;14.334;2023-04-08T10:50:18;12.93;;;8.85;;
75916;SDS011;64595;50.148;14.334;2023-04-08T10:52:45;12.20;;;8.32;;
75916;SDS011;64595;50.148;14.334;2023-04-08T10:55:11;11.68;;;7.32;;
75916;SDS011;64595;50.148;14.334;2023-04-08T10:57:36;11.45;;;7.85;;
75916;SDS011;64595;50.148;14.334;2023-04-08T11:00:02;11.02;;;8.20;;
75916;SDS011;64595;50.148;14.334;2023-04-08T11:02:31;11.45;;;7.35;;
75916;SDS011;64595;50.148;14.334;2023-04-08T11:04:58;13.25;;;8.75;;
75916;SDS011;64595;50.148;14.334;2023-04-08T11:07:24;10.48;;;7.43;;
75916;SDS011;64595;50.148;14.334;2023-04-08T11:09:49;12.23;;;9.05;;
75916;SDS011;64595;50.148;14.334;2023-04-08T11:12:15;10.93;;;7.90;;
75916;SDS011;64595;50.148;14.334;2023-04-08T11:14:40;13.75;;;8.43;;
75916;SDS011;64595;50.148;14.334;2023-04-08T11:17:06;12.05;;;8.00;;
75916;SDS011;64595;50.148;14.334;2023-04-08T11:19:34;10.95;;;7.35;;
75916;SDS011;64595;50.148;14.334;2023-04-08T11:22:01;10.95;;;8.38;;
75916;SDS011;64595;50.148;14.334;2023-04-08T11:24:27;13.20;;;7.80;;
75916;SDS011;64595;50.148;14.334;2023-04-08T11:26:52;13.07;;;9.52;;
75916;SDS011;64595;50.148;14.334;2023-04-08T11:29:18;15.20;;;9.98;;
75916;SDS011;64595;50.148;14.334;2023-04-08T11:31:44;12.10;;;8.57;;
75916;SDS011;64595;50.148;14.334;2023-04-08T11:34:10;10.95;;;7.88;;
75916;SDS011;64595;50.148;14.334;2023-04-08T11:36:35;12.65;;;8.82;;
75916;SDS011;64595;50.148;14.334;2023-04-08T11:39:06;11.98;;;8.75;;
75916;SDS011;64595;50.148;14.334;2023-04-08T11:41:36;13.82;;;8.90;;
75916;SDS011;64595;50.148;14.334;2023-04-08T11:44:01;11.57;;;8.65;;
75916;SDS011;64595;50.148;14.334;2023-04-08T11:46:27;13.52;;;8.82;;
75916;SDS011;64595;50.148;14.334;2023-04-08T11:48:56;13.00;;;8.98;;
75916;SDS011;64595;50.148;14.334;2023-04-08T11:51:22;17.40;;;10.60;;
75916;SDS011;64595;50.148;14.334;2023-04-08T11:53:47;15.95;;;10.95;;
75916;SDS011;64595;50.148;14.334;2023-04-08T11:56:18;14.23;;;9.05;;
75916;SDS011;64595;50.148;14.334;2023-04-08T11:58:44;12.05;;;7.85;;
75916;SDS011;64595;50.148;14.334;2023-04-08T12:01:09;12.05;;;9.02;;
75916;SDS011;64595;50.148;14.334;2023-04-08T12:03:35;15.88;;;11.20;;
75916;SDS011;64595;50.148;14.334;2023-04-08T12:06:00;21.88;;;12.05;;
75916;SDS011;64595;50.148;14.334;2023-04-08T12:08:25;18.73;;;11.63;;
75916;SDS011;64595;50.148;14.334;2023-04-08T12:10:51;15.07;;;10.27;;
75916;SDS011;64595;50.148;14.334;2023-04-08T12:13:18;14.25;;;11.23;;
75916;SDS011;64595;50.148;14.334;2023-04-08T12:15:44;12.55;;;9.65;;
75916;SDS011;64595;50.148;14.334;2023-04-08T12:18:09;13.45;;;9.40;;
75916;SDS011;64595;50.148;14.334;2023-04-08T12:20:34;15.38;;;7.90;;
75916;SDS011;64595;50.148;14.334;2023-04-08T12:23:00;12.73;;;8.05;;
75916;SDS011;64595;50.148;14.334;2023-04-08T12:25:26;11.48;;;8.45;;
75916;SDS011;64595;50.148;14.334;2023-04-08T12:27:51;11.23;;;7.90;;
75916;SDS011;64595;50.148;14.334;2023-04-08T12:30:18;12.77;;;8.68;;
75916;SDS011;64595;50.148;14.334;2023-04-08T12:32:43;13.90;;;9.20;;
75916;SDS011;64595;50.148;14.334;2023-04-08T12:35:09;14.25;;;9.75;;
75916;SDS011;64595;50.148;14.334;2023-04-08T12:37:34;11.65;;;8.48;;
75916;SDS011;64595;50.148;14.334;2023-04-08T12:40:00;10.45;;;7.28;;
75916;SDS011;64595;50.148;14.334;2023-04-08T12:42:25;12.27;;;7.68;;
75916;SDS011;64595;50.148;14.334;2023-04-08T12:44:51;10.32;;;6.85;;
75916;SDS011;64595;50.148;14.334;2023-04-08T12:47:18;9.38;;;6.70;;
75916;SDS011;64595;50.148;14.334;2023-04-08T12:49:43;10.65;;;8.02;;
75916;SDS011;64595;50.148;14.334;2023-04-08T12:52:09;10.38;;;6.90;;
75916;SDS011;64595;50.148;14.334;2023-04-08T12:54:34;10.95;;;7.63;;
75916;SDS011;64595;50.148;14.334;2023-04-08T12:57:00;10.98;;;6.30;;
75916;SDS011;64595;50.148;14.334;2023-04-08T12:59:25;10.02;;;7.55;;
75916;SDS011;64595;50.148;14.334;2023-04-08T13:01:51;11.23;;;7.50;;
75916;SDS011;64595;50.148;14.334;2023-04-08T13:04:17;10.60;;;7.20;;
75916;SDS011;64595;50.148;14.334;2023-04-08T13:06:43;11.82;;;6.47;;
75916;SDS011;64595;50.148;14.334;2023-04-08T13:09:08;10.43;;;6.78;;
75916;SDS011;64595;50.148;14.334;2023-04-08T13:11:34;13.20;;;6.95;;
75916;SDS011;64595;50.148;14.334;2023-04-08T13:13:59;10.55;;;7.35;;
75916;SDS011;64595;50.148;14.334;2023-04-08T13:16:25;12.77;;;8.02;;
75916;SDS011;64595;50.148;14.334;2023-04-08T13:18:50;7.95;;;6.13;;
75916;SDS011;64595;50.148;14.334;2023-04-08T13:21:17;11.48;;;7.68;;
75916;SDS011;64595;50.148;14.334;2023-04-08T13:23:42;9.88;;;6.95;;
75916;SDS011;64595;50.148;14.334;2023-04-08T13:26:08;10.35;;;7.57;;
75916;SDS011;64595;50.148;14.334;2023-04-08T13:28:33;10.25;;;6.95;;
75916;SDS011;64595;50.148;14.334;2023-04-08T13:30:59;9.77;;;7.35;;
75916;SDS011;64595;50.148;14.334;2023-04-08T13:33:24;10.45;;;7.72;;
75916;SDS011;64595;50.148;14.334;2023-04-08T13:35:52;12.02;;;8.65;;
75916;SDS011;64595;50.148;14.334;2023-04-08T13:38:21;12.05;;;9.00;;
75916;SDS011;64595;50.148;14.334;2023-04-08T13:40:46;10.85;;;8.05;;
75916;SDS011;64595;50.148;14.334;2023-04-08T13:43:12;10.55;;;8.45;;
75916;SDS011;64595;50.148;14.334;2023-04-08T13:45:37;14.35;;;9.05;;
75916;SDS011;64595;50.148;14.334;2023-04-08T13:48:03;17.05;;;11.15;;
75916;SDS011;64595;50.148;14.334;2023-04-08T13:50:28;18.98;;;13.80;;
75916;SDS011;64595;50.148;14.334;2023-04-08T13:52:54;18.35;;;14.27;;
75916;SDS011;64595;50.148;14.334;2023-04-08T13:55:23;25.05;;;17.75;;
75916;SDS011;64595;50.148;14.334;2023-04-08T13:57:48;17.25;;;12.93;;
75916;SDS011;64595;50.148;14.334;2023-04-08T14:00:14;19.50;;;16.05;;
75916;SDS011;64595;50.148;14.334;2023-04-08T14:02:40;27.52;;;19.67;;
75916;SDS011;64595;50.148;14.334;2023-04-08T14:05:05;16.90;;;12.73;;
75916;SDS011;64595;50.148;14.334;2023-04-08T14:07:31;17.98;;;14.00;;
75916;SDS011;64595;50.148;14.334;2023-04-08T14:09:57;22.20;;;18.42;;
75916;SDS011;64595;50.148;14.334;2023-04-08T14:12:23;26.40;;;20.08;;
75916;SDS011;64595;50.148;14.334;2023-04-08T14:14:49;13.93;;;10.80;;
75916;SDS011;64595;50.148;14.334;2023-04-08T14:17:14;14.30;;;10.23;;
75916;SDS011;64595;50.148;14.334;2023-04-08T14:19:40;14.10;;;11.30;;
75916;SDS011;64595;50.148;14.334;2023-04-08T14:22:05;14.35;;;9.55;;
75916;SDS011;64595;50.148;14.334;2023-04-08T14:24:31;12.70;;;10.20;;
75916;SDS011;64595;50.148;14.334;2023-04-08T14:26:56;13.57;;;10.77;;